SWA1624 KDAL-KOKC
Flight info
| Callsign | SWA1624 |
|---|---|
| Flight time | 0h 43m |
| Altitude | 27000 |
| Route | SWTSR7 ZEMMA TSDEL3 |
| Aircraft | B38M/M-SADE2E3GHIJ4J7P2RWZ/LB1D1 |
Departure
| Time | 2026-04-22 17:15 |
|---|---|
| Airport | Dallas Love Field (KDAL) |
Arrival
| Time | 2026-04-22 17:58 |
|---|---|
| Airport | OKC Will Rogers World Airport (KOKC) |
| Time | Latitude | Longitude | Altitude | Speed | Heading |
|---|---|---|---|---|---|
| 2026-04-22 16:44 | 32.84647 | -96.85140 | 486 ft | 0 kts | 180° |
| 2026-04-22 17:05 | 32.84658 | -96.85139 | 480 ft | 4 kts | 180° |
| 2026-04-22 17:06 | 32.84685 | -96.85138 | 481 ft | 4 kts | 186° |
| 2026-04-22 17:06 | 32.84711 | -96.85133 | 481 ft | 4 kts | 196° |
| 2026-04-22 17:06 | 32.84735 | -96.85120 | 477 ft | 4 kts | 221° |
| 2026-04-22 17:06 | 32.84745 | -96.85099 | 479 ft | 2 kts | 270° |
| 2026-04-22 17:07 | 32.84745 | -96.85093 | 480 ft | 0 kts | 271° |
| 2026-04-22 17:11 | 32.84746 | -96.85111 | 483 ft | 10 kts | 270° |
| 2026-04-22 17:11 | 32.84749 | -96.85266 | 478 ft | 20 kts | 283° |
| 2026-04-22 17:11 | 32.84796 | -96.85405 | 483 ft | 17 kts | 284° |
| 2026-04-22 17:11 | 32.84900 | -96.85436 | 481 ft | 18 kts | 7° |
| 2026-04-22 17:12 | 32.85036 | -96.85417 | 483 ft | 21 kts | 5° |
| 2026-04-22 17:12 | 32.85190 | -96.85400 | 484 ft | 20 kts | 5° |
| 2026-04-22 17:12 | 32.85313 | -96.85401 | 484 ft | 19 kts | 347° |
| 2026-04-22 17:12 | 32.85418 | -96.85503 | 487 ft | 21 kts | 315° |
| 2026-04-22 17:13 | 32.85518 | -96.85620 | 486 ft | 18 kts | 316° |
| 2026-04-22 17:13 | 32.85609 | -96.85723 | 487 ft | 13 kts | 316° |
| 2026-04-22 17:13 | 32.85647 | -96.85755 | 483 ft | 5 kts | 3° |
| 2026-04-22 17:13 | 32.85654 | -96.85750 | 486 ft | 0 kts | 38° |
| 2026-04-22 17:14 | 32.85655 | -96.85749 | 486 ft | 1 kts | 38° |
| 2026-04-22 17:14 | 32.85681 | -96.85718 | 486 ft | 10 kts | 46° |
| 2026-04-22 17:14 | 32.85667 | -96.85609 | 489 ft | 23 kts | 135° |
| 2026-04-22 17:14 | 32.85381 | -96.85276 | 491 ft | 97 kts | 135° |
| 2026-04-22 17:15 | 32.84984 | -96.84817 | 489 ft | 141 kts | 136° |
| 2026-04-22 17:15 | 32.83936 | -96.83658 | 1163 ft | 168 kts | 135° |
| 2026-04-22 17:15 | 32.83091 | -96.82681 | 1990 ft | 169 kts | 140° |
| 2026-04-22 17:15 | 32.82229 | -96.81711 | 2868 ft | 172 kts | 142° |
| 2026-04-22 17:16 | 32.81282 | -96.80685 | 3367 ft | 199 kts | 142° |
| 2026-04-22 17:16 | 32.80174 | -96.79484 | 3781 ft | 228 kts | 140° |
| 2026-04-22 17:16 | 32.78999 | -96.78203 | 4757 ft | 230 kts | 141° |
| 2026-04-22 17:16 | 32.77795 | -96.76930 | 5695 ft | 237 kts | 142° |
| 2026-04-22 17:17 | 32.76494 | -96.75593 | 6172 ft | 259 kts | 141° |
| 2026-04-22 17:17 | 32.75159 | -96.74102 | 6769 ft | 271 kts | 139° |
| 2026-04-22 17:17 | 32.73765 | -96.72515 | 7617 ft | 279 kts | 139° |
| 2026-04-22 17:17 | 32.72370 | -96.70922 | 7904 ft | 284 kts | 139° |
| 2026-04-22 17:18 | 32.70950 | -96.69282 | 7969 ft | 287 kts | 138° |
| 2026-04-22 17:18 | 32.69535 | -96.67593 | 8583 ft | 289 kts | 134° |
| 2026-04-22 17:18 | 32.68532 | -96.65519 | 9527 ft | 297 kts | 108° |
| 2026-04-22 17:18 | 32.68270 | -96.63042 | 10249 ft | 310 kts | 91° |
| 2026-04-22 17:19 | 32.68356 | -96.57619 | 11173 ft | 347 kts | 75° |
| 2026-04-22 17:19 | 32.71086 | -96.53033 | 12787 ft | 351 kts | 30° |
| 2026-04-22 17:20 | 32.75694 | -96.50980 | 14439 ft | 359 kts | 15° |
| 2026-04-22 17:20 | 32.80596 | -96.49840 | 16094 ft | 362 kts | 352° |
| 2026-04-22 17:21 | 32.83030 | -96.50597 | 16847 ft | 365 kts | 333° |
| 2026-04-22 17:21 | 32.87184 | -96.54079 | 18375 ft | 372 kts | 321° |
| 2026-04-22 17:22 | 32.91236 | -96.57939 | 19736 ft | 378 kts | 320° |
| 2026-04-22 17:22 | 32.93287 | -96.59924 | 20371 ft | 383 kts | 320° |
| 2026-04-22 17:22 | 32.97458 | -96.63994 | 21666 ft | 391 kts | 319° |
| 2026-04-22 17:23 | 32.99564 | -96.66053 | 22340 ft | 394 kts | 320° |
| 2026-04-22 17:23 | 33.03860 | -96.70261 | 23555 ft | 403 kts | 319° |
| 2026-04-22 17:23 | 33.06006 | -96.72365 | 24083 ft | 407 kts | 320° |
| 2026-04-22 17:24 | 33.08206 | -96.74522 | 24532 ft | 412 kts | 320° |
| 2026-04-22 17:24 | 33.10426 | -96.76702 | 25100 ft | 414 kts | 319° |
| 2026-04-22 17:24 | 33.12655 | -96.78890 | 25587 ft | 418 kts | 319° |
| 2026-04-22 17:24 | 33.14912 | -96.81108 | 26012 ft | 423 kts | 320° |
| 2026-04-22 17:25 | 33.17189 | -96.83349 | 26523 ft | 425 kts | 320° |
| 2026-04-22 17:25 | 33.19480 | -96.85604 | 26969 ft | 430 kts | 319° |
| 2026-04-22 17:25 | 33.21804 | -96.87893 | 27082 ft | 438 kts | 320° |
| 2026-04-22 17:25 | 33.24186 | -96.90242 | 27082 ft | 449 kts | 320° |
| 2026-04-22 17:26 | 33.26586 | -96.92609 | 27089 ft | 457 kts | 320° |
| 2026-04-22 17:26 | 33.29053 | -96.95043 | 27095 ft | 462 kts | 320° |
| 2026-04-22 17:26 | 33.31530 | -96.97491 | 27111 ft | 462 kts | 320° |
| 2026-04-22 17:26 | 33.34005 | -96.99937 | 27112 ft | 462 kts | 320° |
| 2026-04-22 17:27 | 33.36482 | -97.02388 | 27115 ft | 462 kts | 320° |
| 2026-04-22 17:27 | 33.38955 | -97.04837 | 27112 ft | 461 kts | 320° |
| 2026-04-22 17:27 | 33.41443 | -97.07262 | 27110 ft | 462 kts | 323° |
| 2026-04-22 17:27 | 33.44251 | -97.09117 | 27117 ft | 463 kts | 338° |
| 2026-04-22 17:28 | 33.47373 | -97.10041 | 27106 ft | 464 kts | 353° |
| 2026-04-22 17:28 | 33.50562 | -97.10026 | 27131 ft | 467 kts | 4° |
| 2026-04-22 17:28 | 33.53804 | -97.09713 | 27126 ft | 468 kts | 4° |
| 2026-04-22 17:28 | 33.57047 | -97.09356 | 27132 ft | 468 kts | 5° |
| 2026-04-22 17:29 | 33.60282 | -97.08973 | 27137 ft | 468 kts | 5° |
| 2026-04-22 17:29 | 33.63521 | -97.08571 | 27138 ft | 468 kts | 5° |
| 2026-04-22 17:29 | 33.66759 | -97.08162 | 27134 ft | 468 kts | 5° |
| 2026-04-22 17:29 | 33.69994 | -97.07752 | 27136 ft | 468 kts | 5° |
| 2026-04-22 17:30 | 33.73235 | -97.07340 | 27130 ft | 468 kts | 5° |
| 2026-04-22 17:30 | 33.76430 | -97.06933 | 27103 ft | 468 kts | 5° |
| 2026-04-22 17:30 | 33.79665 | -97.06522 | 27100 ft | 468 kts | 5° |
| 2026-04-22 17:30 | 33.82907 | -97.06110 | 27102 ft | 468 kts | 5° |
| 2026-04-22 17:31 | 33.86145 | -97.05697 | 27103 ft | 468 kts | 5° |
| 2026-04-22 17:31 | 33.89384 | -97.05285 | 27098 ft | 468 kts | 5° |
| 2026-04-22 17:31 | 33.92623 | -97.04872 | 27095 ft | 468 kts | 5° |
| 2026-04-22 17:31 | 33.95862 | -97.04459 | 27096 ft | 468 kts | 5° |
| 2026-04-22 17:32 | 33.99097 | -97.04045 | 27106 ft | 468 kts | 5° |
| 2026-04-22 17:32 | 34.02337 | -97.03630 | 27107 ft | 468 kts | 5° |
| 2026-04-22 17:32 | 34.05583 | -97.03215 | 27112 ft | 470 kts | 5° |
| 2026-04-22 17:32 | 34.08790 | -97.02804 | 27116 ft | 470 kts | 5° |
| 2026-04-22 17:33 | 34.10987 | -97.02523 | 27118 ft | 470 kts | 6° |
| 2026-04-22 17:33 | 34.15291 | -97.01971 | 27118 ft | 470 kts | 5° |
| 2026-04-22 17:33 | 34.18540 | -97.01554 | 27127 ft | 470 kts | 6° |
| 2026-04-22 17:33 | 34.21789 | -97.01137 | 27129 ft | 469 kts | 5° |
| 2026-04-22 17:34 | 34.24995 | -97.00724 | 26717 ft | 458 kts | 5° |
| 2026-04-22 17:34 | 34.28134 | -97.00320 | 26360 ft | 447 kts | 5° |
| 2026-04-22 17:34 | 34.31186 | -96.99928 | 26087 ft | 435 kts | 5° |
| 2026-04-22 17:34 | 34.34116 | -96.99550 | 25856 ft | 424 kts | 5° |
| 2026-04-22 17:35 | 34.37026 | -96.99372 | 25355 ft | 418 kts | 354° |
| 2026-04-22 17:35 | 34.39833 | -97.00178 | 24759 ft | 414 kts | 335° |
| 2026-04-22 17:35 | 34.42395 | -97.01695 | 24369 ft | 407 kts | 332° |
| 2026-04-22 17:35 | 34.44910 | -97.03227 | 23888 ft | 403 kts | 331° |
| 2026-04-22 17:36 | 34.47400 | -97.04775 | 23273 ft | 402 kts | 331° |
| 2026-04-22 17:36 | 34.49871 | -97.06331 | 22743 ft | 398 kts | 330° |
| 2026-04-22 17:36 | 34.52312 | -97.07884 | 22249 ft | 394 kts | 330° |
| 2026-04-22 17:36 | 34.54728 | -97.09428 | 21772 ft | 390 kts | 330° |
| 2026-04-22 17:37 | 34.57081 | -97.10934 | 21317 ft | 386 kts | 330° |
| 2026-04-22 17:37 | 34.59449 | -97.12449 | 20859 ft | 383 kts | 331° |
| 2026-04-22 17:37 | 34.61796 | -97.13951 | 20414 ft | 380 kts | 330° |
| 2026-04-22 17:37 | 34.64125 | -97.15443 | 19939 ft | 378 kts | 330° |
| 2026-04-22 17:38 | 34.66453 | -97.16937 | 19431 ft | 377 kts | 330° |
| 2026-04-22 17:38 | 34.68768 | -97.18424 | 18933 ft | 376 kts | 330° |
| 2026-04-22 17:38 | 34.71084 | -97.19912 | 18411 ft | 376 kts | 331° |
| 2026-04-22 17:38 | 34.73392 | -97.21393 | 17898 ft | 374 kts | 330° |
| 2026-04-22 17:39 | 34.75682 | -97.22863 | 17435 ft | 370 kts | 330° |
| 2026-04-22 17:39 | 34.77911 | -97.24307 | 17014 ft | 366 kts | 328° |
| 2026-04-22 17:39 | 34.82105 | -97.27445 | 16320 ft | 340 kts | 327° |
| 2026-04-22 17:40 | 34.84085 | -97.28918 | 15944 ft | 328 kts | 327° |
| 2026-04-22 17:40 | 34.86012 | -97.30349 | 15588 ft | 322 kts | 327° |
| 2026-04-22 17:40 | 34.87920 | -97.31762 | 15211 ft | 320 kts | 327° |
| 2026-04-22 17:40 | 34.89817 | -97.33178 | 14813 ft | 320 kts | 327° |
| 2026-04-22 17:41 | 34.91706 | -97.34618 | 14380 ft | 320 kts | 327° |
| 2026-04-22 17:41 | 34.93559 | -97.36028 | 14027 ft | 313 kts | 327° |
| 2026-04-22 17:41 | 34.95380 | -97.37414 | 13679 ft | 306 kts | 327° |
| 2026-04-22 17:41 | 34.97178 | -97.38783 | 13307 ft | 304 kts | 326° |
| 2026-04-22 17:42 | 34.98965 | -97.40143 | 12950 ft | 302 kts | 326° |
| 2026-04-22 17:42 | 35.00738 | -97.41495 | 12595 ft | 300 kts | 325° |
| 2026-04-22 17:42 | 35.02500 | -97.42838 | 12244 ft | 297 kts | 326° |
| 2026-04-22 17:42 | 35.04248 | -97.44171 | 11915 ft | 296 kts | 326° |
| 2026-04-22 17:43 | 35.05986 | -97.45497 | 11576 ft | 294 kts | 325° |
| 2026-04-22 17:43 | 35.07845 | -97.46540 | 11173 ft | 299 kts | 345° |
| 2026-04-22 17:43 | 35.09927 | -97.46773 | 10813 ft | 301 kts | 353° |
| 2026-04-22 17:43 | 35.11977 | -97.46928 | 10496 ft | 299 kts | 354° |
| 2026-04-22 17:44 | 35.14053 | -97.47078 | 10157 ft | 299 kts | 353° |
| 2026-04-22 17:44 | 35.16128 | -97.47220 | 9823 ft | 298 kts | 354° |
| 2026-04-22 17:44 | 35.18199 | -97.47356 | 9448 ft | 298 kts | 354° |
| 2026-04-22 17:44 | 35.20276 | -97.47491 | 9052 ft | 299 kts | 354° |
| 2026-04-22 17:45 | 35.22347 | -97.47623 | 8714 ft | 298 kts | 354° |
| 2026-04-22 17:45 | 35.24386 | -97.47754 | 8376 ft | 289 kts | 354° |
| 2026-04-22 17:45 | 35.26368 | -97.47880 | 8050 ft | 281 kts | 354° |
| 2026-04-22 17:45 | 35.28295 | -97.48004 | 7740 ft | 274 kts | 354° |
| 2026-04-22 17:46 | 35.30151 | -97.48123 | 7419 ft | 268 kts | 354° |
| 2026-04-22 17:46 | 35.32016 | -97.48245 | 7101 ft | 269 kts | 354° |
| 2026-04-22 17:46 | 35.33887 | -97.48366 | 6792 ft | 269 kts | 355° |
| 2026-04-22 17:46 | 35.35760 | -97.48487 | 6479 ft | 270 kts | 354° |
| 2026-04-22 17:47 | 35.37635 | -97.48608 | 6161 ft | 270 kts | 355° |
| 2026-04-22 17:47 | 35.39499 | -97.48670 | 6006 ft | 262 kts | 358° |
| 2026-04-22 17:47 | 35.41278 | -97.48668 | 5993 ft | 250 kts | 358° |
| 2026-04-22 17:47 | 35.43003 | -97.48672 | 5997 ft | 247 kts | 358° |
| 2026-04-22 17:48 | 35.44141 | -97.48677 | 5989 ft | 247 kts | 357° |
| 2026-04-22 17:48 | 35.46417 | -97.48701 | 5991 ft | 247 kts | 356° |
| 2026-04-22 17:48 | 35.48135 | -97.48736 | 5989 ft | 247 kts | 357° |
| 2026-04-22 17:48 | 35.49851 | -97.48769 | 5986 ft | 246 kts | 357° |
| 2026-04-22 17:49 | 35.51565 | -97.48800 | 5981 ft | 247 kts | 356° |
| 2026-04-22 17:49 | 35.53289 | -97.48835 | 5985 ft | 247 kts | 357° |
| 2026-04-22 17:49 | 35.55004 | -97.48868 | 5981 ft | 247 kts | 357° |
| 2026-04-22 17:49 | 35.56724 | -97.48901 | 5977 ft | 247 kts | 357° |
| 2026-04-22 17:50 | 35.58438 | -97.48934 | 5974 ft | 246 kts | 357° |
| 2026-04-22 17:50 | 35.60130 | -97.48967 | 5968 ft | 247 kts | 356° |
| 2026-04-22 17:50 | 35.61847 | -97.49018 | 5983 ft | 246 kts | 352° |
| 2026-04-22 17:50 | 35.63423 | -97.49687 | 5914 ft | 238 kts | 320° |
| 2026-04-22 17:51 | 35.64450 | -97.51194 | 5875 ft | 229 kts | 289° |
| 2026-04-22 17:51 | 35.64669 | -97.53074 | 5819 ft | 221 kts | 257° |
| 2026-04-22 17:51 | 35.64091 | -97.54742 | 5675 ft | 209 kts | 232° |
| 2026-04-22 17:51 | 35.63205 | -97.56141 | 5391 ft | 208 kts | 228° |
| 2026-04-22 17:52 | 35.62279 | -97.57510 | 5088 ft | 209 kts | 228° |
| 2026-04-22 17:52 | 35.61286 | -97.58692 | 5015 ft | 195 kts | 209° |
| 2026-04-22 17:52 | 35.60025 | -97.59051 | 4936 ft | 185 kts | 174° |
| 2026-04-22 17:52 | 35.58884 | -97.58402 | 4930 ft | 186 kts | 139° |
| 2026-04-22 17:53 | 35.57852 | -97.57447 | 4486 ft | 194 kts | 164° |
| 2026-04-22 17:53 | 35.56538 | -97.57192 | 4262 ft | 184 kts | 185° |
| 2026-04-22 17:53 | 35.55315 | -97.57560 | 3962 ft | 180 kts | 199° |
| 2026-04-22 17:53 | 35.54165 | -97.58160 | 3443 ft | 173 kts | 202° |
| 2026-04-22 17:54 | 35.53145 | -97.58704 | 3217 ft | 153 kts | 201° |
| 2026-04-22 17:54 | 35.52158 | -97.59061 | 2842 ft | 145 kts | 189° |
| 2026-04-22 17:54 | 35.51195 | -97.59129 | 2603 ft | 133 kts | 180° |
| 2026-04-22 17:54 | 35.50286 | -97.59162 | 2496 ft | 130 kts | 182° |
| 2026-04-22 17:55 | 35.49684 | -97.59172 | 2422 ft | 131 kts | 180° |
| 2026-04-22 17:55 | 35.48481 | -97.59115 | 2096 ft | 127 kts | 175° |
| 2026-04-22 17:55 | 35.47588 | -97.59042 | 1904 ft | 130 kts | 176° |
| 2026-04-22 17:55 | 35.46681 | -97.59008 | 1988 ft | 131 kts | 175° |
| 2026-04-22 17:56 | 35.45750 | -97.58974 | 2035 ft | 135 kts | 176° |
| 2026-04-22 17:56 | 35.44827 | -97.58927 | 2084 ft | 132 kts | 175° |
| 2026-04-22 17:56 | 35.43905 | -97.58930 | 1954 ft | 132 kts | 177° |
| 2026-04-22 17:56 | 35.42999 | -97.58955 | 1741 ft | 131 kts | 176° |
| 2026-04-22 17:57 | 35.42092 | -97.58942 | 1587 ft | 130 kts | 173° |
| 2026-04-22 17:57 | 35.41187 | -97.58900 | 1454 ft | 130 kts | 176° |
| 2026-04-22 17:57 | 35.40278 | -97.58903 | 1319 ft | 130 kts | 176° |
| 2026-04-22 17:57 | 35.39360 | -97.58893 | 1295 ft | 119 kts | 180° |
| 2026-04-22 17:58 | 35.38767 | -97.58891 | 1297 ft | 55 kts | 181° |
| 2026-04-22 17:58 | 35.38562 | -97.58923 | 1295 ft | 20 kts | 229° |
| 2026-04-22 17:58 | 35.38568 | -97.59040 | 1297 ft | 15 kts | 311° |
| 2026-04-22 17:58 | 35.38674 | -97.59063 | 1295 ft | 18 kts | 2° |
| 2026-04-22 17:59 | 35.38808 | -97.59063 | 1294 ft | 16 kts | 360° |
| 2026-04-22 17:59 | 35.38904 | -97.59062 | 1295 ft | 15 kts | 0° |
| 2026-04-22 17:59 | 35.39013 | -97.59062 | 1295 ft | 17 kts | 360° |
| 2026-04-22 17:59 | 35.39148 | -97.59064 | 1293 ft | 20 kts | 359° |
| 2026-04-22 18:00 | 35.39238 | -97.59064 | 1294 ft | 20 kts | 360° |
| 2026-04-22 18:00 | 35.39386 | -97.59063 | 1297 ft | 14 kts | 1° |
| 2026-04-22 18:00 | 35.39469 | -97.59082 | 1296 ft | 11 kts | 307° |
| 2026-04-22 18:00 | 35.39473 | -97.59171 | 1298 ft | 10 kts | 262° |
| 2026-04-22 18:01 | 35.39447 | -97.59222 | 1299 ft | 6 kts | 229° |
| 2026-04-22 18:01 | 35.39437 | -97.59258 | 1299 ft | 3 kts | 283° |
| 2026-04-22 18:01 | 35.39446 | -97.59278 | 1299 ft | 0 kts | 300° |
| 2026-04-22 18:01 | 35.39445 | -97.59285 | 1299 ft | 3 kts | 260° |
| 2026-04-22 18:02 | 35.39422 | -97.59336 | 1299 ft | 10 kts | 239° |
| 2026-04-22 18:02 | 35.39386 | -97.59420 | 1300 ft | 12 kts | 256° |
| 2026-04-22 18:02 | 35.39384 | -97.59537 | 1300 ft | 15 kts | 270° |
| 2026-04-22 18:02 | 35.39386 | -97.59637 | 1300 ft | 8 kts | 275° |
| 2026-04-22 18:03 | 35.39396 | -97.59710 | 1300 ft | 8 kts | 283° |
| 2026-04-22 18:03 | 35.39424 | -97.59731 | 1300 ft | 4 kts | 25° |
| 2026-04-22 18:03 | 35.39448 | -97.59709 | 1300 ft | 5 kts | 35° |
| 2026-04-22 18:03 | 35.39458 | -97.59701 | 1300 ft | 0 kts | 34° |